createdAt,value
2018-11-25T00:00:29.491Z,6.50
2018-11-25T00:02:58.431Z,6.50
2018-11-25T00:05:27.625Z,6.40
2018-11-25T00:07:56.499Z,6.30
2018-11-25T00:10:25.523Z,6.30
2018-11-25T00:12:54.450Z,6.30
2018-11-25T00:15:23.413Z,6.30
2018-11-25T00:17:52.343Z,6.30
2018-11-25T00:20:22.122Z,6.40
2018-11-25T00:22:51.168Z,6.40
2018-11-25T00:25:20.219Z,6.40
2018-11-25T00:27:49.087Z,6.40
2018-11-25T00:30:18.076Z,6.50
2018-11-25T00:32:47.235Z,6.50
2018-11-25T00:35:16.877Z,6.50
2018-11-25T00:37:48.248Z,6.50
2018-11-25T00:40:15.790Z,6.50
2018-11-25T00:42:45.266Z,6.50
2018-11-25T00:45:16.324Z,6.40
2018-11-25T00:47:45.513Z,6.40
2018-11-25T00:50:15.416Z,6.40
2018-11-25T00:52:44.423Z,6.40
2018-11-25T00:55:17.878Z,6.40
2018-11-25T00:57:47.019Z,6.30
2018-11-25T01:00:22.525Z,6.30
2018-11-25T01:02:51.721Z,6.20
2018-11-25T01:05:20.988Z,6.20
2018-11-25T01:07:50.166Z,6.10
2018-11-25T01:10:19.289Z,6.00
2018-11-25T01:12:48.601Z,6.00
2018-11-25T01:15:18.404Z,5.90
2018-11-25T01:17:47.721Z,5.90
2018-11-25T01:20:17.761Z,5.80
2018-11-25T01:22:46.801Z,5.80
2018-11-25T01:25:16.047Z,5.80
2018-11-25T01:27:45.077Z,5.80
2018-11-25T01:30:17.880Z,5.80
2018-11-25T01:32:47.033Z,5.80
2018-11-25T01:35:16.335Z,5.80
2018-11-25T01:37:46.162Z,5.80
2018-11-25T01:40:18.477Z,5.80
2018-11-25T01:42:47.800Z,5.80
2018-11-25T01:45:17.602Z,5.80
2018-11-25T01:47:46.821Z,5.80
2018-11-25T01:50:16.856Z,5.80
2018-11-25T01:52:46.521Z,5.80
2018-11-25T01:55:16.642Z,5.80
2018-11-25T01:57:46.592Z,5.90
2018-11-25T02:00:17.728Z,5.90
2018-11-25T02:02:46.693Z,5.90
2018-11-25T02:05:15.976Z,5.90
2018-11-25T02:07:45.202Z,5.90
2018-11-25T02:10:15.898Z,5.90
2018-11-25T02:12:44.944Z,5.90
2018-11-25T02:15:15.844Z,6.00
2018-11-25T02:17:45.122Z,6.00
2018-11-25T02:20:18.129Z,6.00
2018-11-25T02:22:47.229Z,6.00
2018-11-25T02:25:16.225Z,6.00
2018-11-25T02:27:45.166Z,6.10
2018-11-25T02:30:15.556Z,6.10
2018-11-25T02:32:44.627Z,6.10
2018-11-25T02:35:14.531Z,6.10
2018-11-25T02:37:43.592Z,6.10
2018-11-25T02:40:13.737Z,6.10
2018-11-25T02:42:42.680Z,6.10
2018-11-25T02:45:13.072Z,6.10
2018-11-25T02:47:42.261Z,6.00
2018-11-25T02:50:28.436Z,6.00
2018-11-25T02:53:12.850Z,6.00
2018-11-25T02:55:41.755Z,6.00
2018-11-25T02:58:10.914Z,6.00
2018-11-25T03:00:39.892Z,6.00
2018-11-25T03:03:09.019Z,5.90
2018-11-25T03:05:38.003Z,6.00
2018-11-25T03:08:07.184Z,6.00
2018-11-25T03:10:36.268Z,6.00
2018-11-25T03:13:05.299Z,6.10
2018-11-25T03:15:34.205Z,6.10
2018-11-25T03:18:03.099Z,6.10
2018-11-25T03:20:32.379Z,6.10
2018-11-25T03:23:01.363Z,6.10
2018-11-25T03:25:30.430Z,6.10
2018-11-25T03:27:59.425Z,6.10
2018-11-25T03:30:28.575Z,6.10
2018-11-25T03:32:57.662Z,6.20
2018-11-25T03:35:26.710Z,6.10
2018-11-25T03:37:55.707Z,6.10
2018-11-25T03:40:24.791Z,6.10
2018-11-25T03:42:53.980Z,6.10
2018-11-25T03:45:23.137Z,6.10
2018-11-25T03:47:52.256Z,6.10
2018-11-25T03:50:21.170Z,6.10
2018-11-25T03:52:50.252Z,6.10
2018-11-25T03:55:19.418Z,6.00
2018-11-25T03:57:48.571Z,6.10
2018-11-25T04:00:22.621Z,6.10
2018-11-25T04:02:53.504Z,6.10
2018-11-25T04:05:22.522Z,6.10
2018-11-25T04:07:51.511Z,6.10
2018-11-25T04:10:20.553Z,6.10
2018-11-25T04:12:49.627Z,6.20
2018-11-25T04:15:19.451Z,6.20
2018-11-25T04:17:49.058Z,6.20
2018-11-25T04:20:19.604Z,6.20
2018-11-25T04:22:48.827Z,6.30
2018-11-25T04:25:17.938Z,6.20
2018-11-25T04:27:46.817Z,6.20
2018-11-25T04:30:19.312Z,6.20
2018-11-25T04:32:50.238Z,6.20
2018-11-25T04:35:19.398Z,6.20
2018-11-25T04:37:48.545Z,6.20
2018-11-25T04:40:19.020Z,6.20
2018-11-25T04:42:48.181Z,6.20
2018-11-25T04:45:17.634Z,6.20
2018-11-25T04:47:47.189Z,6.20
2018-11-25T04:50:17.751Z,6.20
2018-11-25T04:52:46.916Z,6.20
2018-11-25T04:55:15.996Z,6.20
2018-11-25T04:57:50.447Z,6.20
2018-11-25T05:00:19.697Z,6.20
2018-11-25T05:02:49.189Z,6.30
2018-11-25T05:05:19.058Z,6.30
2018-11-25T05:07:48.584Z,6.30
2018-11-25T05:10:18.236Z,6.30
2018-11-25T05:12:47.409Z,6.30
2018-11-25T05:15:22.004Z,6.30
2018-11-25T05:17:51.106Z,6.20
2018-11-25T05:20:20.974Z,6.20
2018-11-25T05:22:49.852Z,6.20
2018-11-25T05:25:19.528Z,6.20
2018-11-25T05:27:48.661Z,6.30
2018-11-25T05:30:19.523Z,6.20
2018-11-25T05:32:48.545Z,6.30
2018-11-25T05:35:21.850Z,6.20
2018-11-25T05:37:50.823Z,6.20
2018-11-25T05:40:19.734Z,6.30
2018-11-25T05:42:48.890Z,6.30
2018-11-25T05:45:19.138Z,6.20
2018-11-25T05:47:48.339Z,6.20
2018-11-25T05:50:18.681Z,6.20
2018-11-25T05:52:48.378Z,6.30
2018-11-25T05:55:17.731Z,6.20
2018-11-25T05:57:46.727Z,6.20
2018-11-25T06:00:19.216Z,6.20
2018-11-25T06:02:48.991Z,6.20
2018-11-25T06:05:17.862Z,6.20
2018-11-25T06:07:46.807Z,6.20
2018-11-25T06:10:15.826Z,6.30
2018-11-25T06:12:44.851Z,6.20
2018-11-25T06:15:14.832Z,6.20
2018-11-25T06:17:43.932Z,6.30
2018-11-25T06:20:14.053Z,6.30
2018-11-25T06:22:43.241Z,6.30
2018-11-25T06:25:13.970Z,6.30
2018-11-25T06:27:42.924Z,6.30
2018-11-25T06:30:16.798Z,6.30
2018-11-25T06:32:46.061Z,6.30
2018-11-25T06:35:16.243Z,6.40
2018-11-25T06:37:45.744Z,6.40
2018-11-25T06:40:18.839Z,6.40
2018-11-25T06:42:47.882Z,6.30
2018-11-25T06:45:25.809Z,6.30
2018-11-25T06:47:56.122Z,6.30
2018-11-25T06:50:25.126Z,6.30
2018-11-25T06:52:54.246Z,6.30
2018-11-25T06:55:23.271Z,6.20
2018-11-25T06:57:52.176Z,6.20
2018-11-25T07:00:23.188Z,6.20
2018-11-25T07:02:52.245Z,6.20
2018-11-25T07:05:21.443Z,6.20
2018-11-25T07:07:50.401Z,6.10
2018-11-25T07:10:20.357Z,6.20
2018-11-25T07:12:51.521Z,6.20
2018-11-25T07:15:20.563Z,6.20
2018-11-25T07:17:49.786Z,6.20
2018-11-25T07:20:19.329Z,6.30
2018-11-25T07:22:48.481Z,6.40
2018-11-25T07:25:21.406Z,6.40
2018-11-25T07:27:50.696Z,6.40
2018-11-25T07:30:23.653Z,6.40
2018-11-25T07:32:52.783Z,6.40
2018-11-25T07:35:23.645Z,6.50
2018-11-25T07:37:52.660Z,6.50
2018-11-25T07:40:22.446Z,6.50
2018-11-25T07:42:51.401Z,6.40
2018-11-25T07:45:21.426Z,6.40
2018-11-25T07:47:50.366Z,6.40
2018-11-25T07:50:19.401Z,6.50
2018-11-25T07:52:49.251Z,6.40
2018-11-25T07:55:19.356Z,6.40
2018-11-25T07:57:48.880Z,6.50
2018-11-25T08:00:19.671Z,6.60
2018-11-25T08:02:48.688Z,6.70
2018-11-25T08:05:20.602Z,6.80
2018-11-25T08:07:49.719Z,6.90
2018-11-25T08:10:18.772Z,6.90
2018-11-25T08:12:48.083Z,6.90
2018-11-25T08:15:18.722Z,6.90
2018-11-25T08:17:47.949Z,6.80
2018-11-25T08:20:24.041Z,6.70
2018-11-25T08:22:57.801Z,6.60
2018-11-25T08:25:26.920Z,6.50
2018-11-25T08:27:56.363Z,6.40
2018-11-25T08:30:25.525Z,6.30
2018-11-25T08:32:54.632Z,6.30
2018-11-25T08:35:24.284Z,6.30
2018-11-25T08:37:53.203Z,6.30
2018-11-25T08:40:23.427Z,6.30
2018-11-25T08:42:53.204Z,6.40
2018-11-25T08:45:22.366Z,6.40
2018-11-25T08:47:51.565Z,6.40
2018-11-25T08:50:20.977Z,6.50
2018-11-25T08:52:51.963Z,6.50
2018-11-25T08:55:24.960Z,6.50
2018-11-25T08:57:54.528Z,6.50
2018-11-25T09:00:25.419Z,6.60
2018-11-25T09:02:55.696Z,6.60
2018-11-25T09:05:24.839Z,6.70
2018-11-25T09:07:53.757Z,6.80
2018-11-25T09:10:23.134Z,6.80
2018-11-25T09:12:55.985Z,6.80
2018-11-25T09:15:25.046Z,6.90
2018-11-25T09:17:54.108Z,6.90
2018-11-25T09:20:23.482Z,6.90
2018-11-25T09:22:52.947Z,6.90
2018-11-25T09:25:26.803Z,6.90
2018-11-25T09:27:56.171Z,6.90
2018-11-25T09:30:27.296Z,7.00
2018-11-25T09:32:56.461Z,7.10
2018-11-25T09:35:25.776Z,7.10
2018-11-25T09:37:54.690Z,7.20
2018-11-25T09:40:25.722Z,7.20
2018-11-25T09:42:54.790Z,7.20
2018-11-25T09:45:23.875Z,7.30
2018-11-25T09:47:52.940Z,7.40
2018-11-25T09:50:23.631Z,7.40
2018-11-25T09:52:53.542Z,7.50
2018-11-25T09:55:25.175Z,7.50
2018-11-25T09:58:00.203Z,7.50
2018-11-25T10:00:37.023Z,7.60
2018-11-25T10:03:07.363Z,7.60
2018-11-25T10:05:36.539Z,7.60
2018-11-25T10:08:05.777Z,7.60
2018-11-25T10:10:35.001Z,7.70
2018-11-25T10:13:04.278Z,7.70
2018-11-25T10:15:33.531Z,7.70
2018-11-25T10:18:02.629Z,7.70
2018-11-25T10:20:32.587Z,7.70
2018-11-25T10:23:01.521Z,7.70
2018-11-25T10:25:30.852Z,7.70
2018-11-25T10:28:00.076Z,7.70
2018-11-25T10:30:30.303Z,7.70
2018-11-25T10:33:01.920Z,7.70
2018-11-25T10:35:30.899Z,7.70
2018-11-25T10:38:00.061Z,7.70
2018-11-25T10:40:29.160Z,7.80
2018-11-25T10:42:58.251Z,7.80
2018-11-25T10:45:28.187Z,7.90
2018-11-25T10:47:58.061Z,7.90
2018-11-25T10:50:27.080Z,7.90
2018-11-25T10:52:56.063Z,7.90
2018-11-25T10:55:26.281Z,8.00
2018-11-25T10:57:55.281Z,8.10
2018-11-25T11:00:35.556Z,8.10
2018-11-25T11:03:11.411Z,8.10
2018-11-25T11:05:45.648Z,8.10
2018-11-25T11:08:14.881Z,8.20
2018-11-25T11:10:44.177Z,8.10
2018-11-25T11:13:13.419Z,8.20
2018-11-25T11:15:42.510Z,8.20
2018-11-25T11:18:11.546Z,8.20
2018-11-25T11:20:40.732Z,8.20
2018-11-25T11:23:09.648Z,8.10
2018-11-25T11:25:38.602Z,8.00
2018-11-25T11:28:07.805Z,8.00
2018-11-25T11:30:36.918Z,8.10
2018-11-25T11:33:05.936Z,7.90
2018-11-25T11:35:34.965Z,7.80
2018-11-25T11:38:03.957Z,7.90
2018-11-25T11:40:33.006Z,7.90
2018-11-25T11:43:01.999Z,7.90
2018-11-25T11:45:32.114Z,7.90
2018-11-25T11:48:01.055Z,7.80
2018-11-25T11:50:30.147Z,7.90
2018-11-25T11:52:59.346Z,7.80
2018-11-25T11:55:28.553Z,7.80
2018-11-25T11:57:57.832Z,7.80
2018-11-25T12:00:28.480Z,7.80
2018-11-25T12:02:57.618Z,7.90
2018-11-25T12:05:27.027Z,7.90
2018-11-25T12:07:56.248Z,7.90
2018-11-25T12:10:25.368Z,7.80
2018-11-25T12:12:54.566Z,7.80
2018-11-25T12:15:30.585Z,7.80
2018-11-25T12:17:55.329Z,7.70
2018-11-25T12:20:25.356Z,7.60
2018-11-25T12:22:55.204Z,7.60
2018-11-25T12:25:24.205Z,7.60
2018-11-25T12:27:53.710Z,7.60
2018-11-25T12:30:22.957Z,7.60
2018-11-25T12:32:52.605Z,7.60
2018-11-25T12:35:21.963Z,7.60
2018-11-25T12:37:51.323Z,7.50
2018-11-25T12:40:22.356Z,7.60
2018-11-25T12:42:53.491Z,7.50
2018-11-25T12:45:22.765Z,7.40
2018-11-25T12:47:52.054Z,7.40
2018-11-25T12:50:23.041Z,7.40
2018-11-25T12:52:52.270Z,7.50
2018-11-25T12:55:23.562Z,7.40
2018-11-25T12:57:53.336Z,7.40
2018-11-25T13:00:33.607Z,7.40
2018-11-25T13:03:02.724Z,7.30
2018-11-25T13:05:32.062Z,7.40
2018-11-25T13:08:01.286Z,7.40
2018-11-25T13:10:30.844Z,7.40
2018-11-25T13:13:00.474Z,7.30
2018-11-25T13:15:29.749Z,7.30
2018-11-25T13:17:58.824Z,7.30
2018-11-25T13:20:28.095Z,7.30
2018-11-25T13:22:57.035Z,7.30
2018-11-25T13:25:26.288Z,7.30
2018-11-25T13:27:55.612Z,7.30
2018-11-25T13:30:28.994Z,7.30
2018-11-25T13:33:01.230Z,7.40
2018-11-25T13:35:31.926Z,7.40
2018-11-25T13:38:01.214Z,7.40
2018-11-25T13:40:30.656Z,7.40
2018-11-25T13:42:59.949Z,7.40
2018-11-25T13:45:29.292Z,7.30
2018-11-25T13:47:58.734Z,7.40
2018-11-25T13:50:28.051Z,7.40
2018-11-25T13:52:57.359Z,7.40
2018-11-25T13:55:27.753Z,7.50
2018-11-25T13:57:57.957Z,7.60
2018-11-25T14:00:31.134Z,7.60
2018-11-25T14:03:00.317Z,7.70
2018-11-25T14:05:29.212Z,7.80
2018-11-25T14:07:58.615Z,7.90
2018-11-25T14:10:29.652Z,7.90
2018-11-25T14:12:58.799Z,7.90
2018-11-25T14:15:27.816Z,7.90
2018-11-25T14:17:56.870Z,7.90
2018-11-25T14:20:26.027Z,7.90
2018-11-25T14:22:55.447Z,7.90
2018-11-25T14:25:25.245Z,7.80
2018-11-25T14:27:59.216Z,7.70
2018-11-25T14:30:29.828Z,7.70
2018-11-25T14:32:58.817Z,7.60
2018-11-25T14:35:27.983Z,7.60
2018-11-25T14:37:57.434Z,7.60
2018-11-25T14:40:26.543Z,7.60
2018-11-25T14:42:56.050Z,7.60
2018-11-25T14:45:25.557Z,7.60
2018-11-25T14:47:54.807Z,7.60
2018-11-25T14:50:24.048Z,7.50
2018-11-25T14:52:54.152Z,7.50
2018-11-25T14:55:23.240Z,7.50
2018-11-25T14:57:52.282Z,7.40
2018-11-25T15:00:22.310Z,7.40
2018-11-25T15:02:56.966Z,7.40
2018-11-25T15:05:44.097Z,7.40
2018-11-25T15:08:20.747Z,7.40
2018-11-25T15:10:50.063Z,7.40
2018-11-25T15:13:19.449Z,7.30
2018-11-25T15:15:49.296Z,7.30
2018-11-25T15:18:18.402Z,7.30
2018-11-25T15:20:48.443Z,7.20
2018-11-25T15:23:17.651Z,7.10
2018-11-25T15:25:48.812Z,7.10
2018-11-25T15:28:18.163Z,7.20
2018-11-25T15:30:47.439Z,7.20
2018-11-25T15:33:16.887Z,7.10
2018-11-25T15:35:46.886Z,7.10
2018-11-25T15:38:16.284Z,7.10
2018-11-25T15:40:45.434Z,7.10
2018-11-25T15:43:15.015Z,7.10
2018-11-25T15:45:44.238Z,7.10
2018-11-25T15:48:18.255Z,7.10
2018-11-25T15:50:47.634Z,7.10
2018-11-25T15:53:18.011Z,7.10
2018-11-25T15:55:47.407Z,7.10
2018-11-25T15:58:17.213Z,7.10
2018-11-25T16:00:46.533Z,7.10
2018-11-25T16:03:17.091Z,7.10
2018-11-25T16:05:48.281Z,7.10
2018-11-25T16:08:17.404Z,7.10
2018-11-25T16:10:46.852Z,7.10
2018-11-25T16:13:15.966Z,7.10
2018-11-25T16:15:45.323Z,7.10
2018-11-25T16:18:14.493Z,7.10
2018-11-25T16:20:44.969Z,7.10
2018-11-25T16:23:14.390Z,7.10
2018-11-25T16:25:49.230Z,7.10
2018-11-25T16:28:21.238Z,7.10
2018-11-25T16:30:51.192Z,7.10
2018-11-25T16:33:20.838Z,7.10
2018-11-25T16:35:50.102Z,7.10
2018-11-25T16:38:19.510Z,7.10
2018-11-25T16:40:48.804Z,7.10
2018-11-25T16:43:18.202Z,7.10
2018-11-25T16:45:47.964Z,7.10
2018-11-25T16:48:16.922Z,7.00
2018-11-25T16:50:46.042Z,7.10
2018-11-25T16:53:15.174Z,7.10
2018-11-25T16:55:44.332Z,7.10
2018-11-25T16:58:13.778Z,7.10
2018-11-25T17:00:43.129Z,6.90
2018-11-25T17:03:12.269Z,6.90
2018-11-25T17:05:44.562Z,6.90
2018-11-25T17:08:27.522Z,6.90
2018-11-25T17:10:56.884Z,6.90
2018-11-25T17:13:26.081Z,6.90
2018-11-25T17:15:55.485Z,6.90
2018-11-25T17:18:24.644Z,6.90
2018-11-25T17:20:53.723Z,6.90
2018-11-25T17:23:23.679Z,6.90
2018-11-25T17:25:53.470Z,6.90
2018-11-25T17:28:22.565Z,7.00
2018-11-25T17:30:51.724Z,6.90
2018-11-25T17:33:21.859Z,6.90
2018-11-25T17:35:50.267Z,6.90
2018-11-25T17:38:19.199Z,6.90
2018-11-25T17:40:48.600Z,6.90
2018-11-25T17:43:21.009Z,6.90
2018-11-25T17:45:50.325Z,6.90
2018-11-25T17:48:19.401Z,6.90
2018-11-25T17:50:48.632Z,6.90
2018-11-25T17:53:20.961Z,6.90
2018-11-25T17:55:47.161Z,6.90
2018-11-25T17:58:16.281Z,6.90
2018-11-25T18:00:51.603Z,6.90
2018-11-25T18:03:25.830Z,6.90
2018-11-25T18:05:54.923Z,6.80
2018-11-25T18:08:24.165Z,6.80
2018-11-25T18:10:53.403Z,6.80
2018-11-25T18:13:24.241Z,6.90
2018-11-25T18:15:54.493Z,6.90
2018-11-25T18:18:45.127Z,6.80
2018-11-25T18:21:18.349Z,6.90
2018-11-25T18:23:47.557Z,7.00
2018-11-25T18:26:17.079Z,7.10
2018-11-25T18:28:46.323Z,7.20
2018-11-25T18:31:15.930Z,7.10
2018-11-25T18:33:46.082Z,7.10
2018-11-25T18:36:15.715Z,7.00
2018-11-25T18:38:45.521Z,7.00
2018-11-25T18:41:15.125Z,7.00
2018-11-25T18:43:44.681Z,7.00
2018-11-25T18:46:14.403Z,7.00
2018-11-25T18:48:45.967Z,6.90
2018-11-25T18:51:15.886Z,6.90
2018-11-25T18:53:45.884Z,6.90
2018-11-25T18:56:15.283Z,6.90
2018-11-25T18:58:44.324Z,6.90
2018-11-25T19:01:16.803Z,6.80
2018-11-25T19:03:46.441Z,6.80
2018-11-25T19:06:15.805Z,6.80
2018-11-25T19:08:45.365Z,6.80
2018-11-25T19:11:14.923Z,6.80
2018-11-25T19:13:44.925Z,6.80
2018-11-25T19:16:14.565Z,6.80
2018-11-25T19:18:44.124Z,6.80
2018-11-25T19:21:13.676Z,6.70
2018-11-25T19:23:43.921Z,6.70
2018-11-25T19:26:13.400Z,6.70
2018-11-25T19:28:43.036Z,6.70
2018-11-25T19:31:12.484Z,6.70
2018-11-25T19:33:42.086Z,6.70
2018-11-25T19:36:11.577Z,6.70
2018-11-25T19:38:41.549Z,6.70
2018-11-25T19:41:11.120Z,6.70
2018-11-25T19:43:40.722Z,6.70
2018-11-25T19:46:10.227Z,6.70
2018-11-25T19:48:39.684Z,6.70
2018-11-25T19:51:17.011Z,6.70
2018-11-25T19:53:38.721Z,6.70
2018-11-25T19:56:08.241Z,6.70
2018-11-25T19:58:37.650Z,6.70
2018-11-25T20:01:07.877Z,6.60
2018-11-25T20:03:43.367Z,6.50
2018-11-25T20:06:12.965Z,6.50
2018-11-25T20:08:43.230Z,6.50
2018-11-25T20:11:12.880Z,6.40
2018-11-25T20:13:42.560Z,6.50
2018-11-25T20:16:17.420Z,6.50
2018-11-25T20:18:47.229Z,6.60
2018-11-25T20:21:22.314Z,6.60
2018-11-25T20:23:52.593Z,6.60
2018-11-25T20:26:22.088Z,6.70
2018-11-25T20:28:52.410Z,6.70
2018-11-25T20:31:22.390Z,6.70
2018-11-25T20:33:53.806Z,6.60
2018-11-25T20:36:23.255Z,6.60
2018-11-25T20:38:57.877Z,6.60
2018-11-25T20:41:27.441Z,6.60
2018-11-25T20:43:56.916Z,6.60
2018-11-25T20:46:31.364Z,6.60
2018-11-25T20:49:00.970Z,6.60
2018-11-25T20:51:35.455Z,6.60
2018-11-25T20:54:05.724Z,6.50
2018-11-25T20:56:35.203Z,6.50
2018-11-25T20:59:05.086Z,6.50
2018-11-25T21:01:34.521Z,6.50
2018-11-25T21:04:03.641Z,6.50
2018-11-25T21:06:32.764Z,6.40
2018-11-25T21:09:02.294Z,6.40
2018-11-25T21:11:32.305Z,6.40
2018-11-25T21:14:02.550Z,6.40
2018-11-25T21:16:32.163Z,6.40
2018-11-25T21:19:01.212Z,6.40
2018-11-25T21:21:30.443Z,6.30
2018-11-25T21:23:59.931Z,6.30
2018-11-25T21:26:29.285Z,6.30
2018-11-25T21:28:58.405Z,6.20
2018-11-25T21:31:27.843Z,6.20
2018-11-25T21:33:56.962Z,6.30
2018-11-25T21:36:25.922Z,6.20
2018-11-25T21:38:55.121Z,6.30
2018-11-25T21:41:24.252Z,6.20
2018-11-25T21:43:53.346Z,6.20
2018-11-25T21:46:22.324Z,6.20
2018-11-25T21:48:51.642Z,6.20
2018-11-25T21:51:20.686Z,6.20
2018-11-25T21:53:49.684Z,6.20
2018-11-25T21:56:19.123Z,6.20
2018-11-25T21:58:48.184Z,6.20
2018-11-25T22:01:17.359Z,6.20
2018-11-25T22:03:46.646Z,6.30
2018-11-25T22:06:15.963Z,6.30
2018-11-25T22:08:45.042Z,6.30
2018-11-25T22:11:19.651Z,6.30
2018-11-25T22:13:48.642Z,6.30
2018-11-25T22:16:18.443Z,6.30
2018-11-25T22:18:47.435Z,6.30
2018-11-25T22:21:16.481Z,6.30
2018-11-25T22:23:45.722Z,6.30
2018-11-25T22:26:15.082Z,6.30
2018-11-25T22:28:44.123Z,6.30
2018-11-25T22:31:13.256Z,6.30
2018-11-25T22:33:42.479Z,6.30
2018-11-25T22:36:11.608Z,6.30
2018-11-25T22:38:40.838Z,6.30
2018-11-25T22:41:09.812Z,6.30
2018-11-25T22:43:39.170Z,6.30
2018-11-25T22:46:08.321Z,6.30
2018-11-25T22:48:37.480Z,6.30
2018-11-25T22:51:06.875Z,6.30
2018-11-25T22:53:36.028Z,6.20
2018-11-25T22:56:05.242Z,6.30
2018-11-25T22:58:34.414Z,6.30
2018-11-25T23:01:03.534Z,6.30
2018-11-25T23:03:32.642Z,6.30
2018-11-25T23:06:12.474Z,6.30
2018-11-25T23:08:41.681Z,6.30
2018-11-25T23:11:10.840Z,6.30
2018-11-25T23:13:40.087Z,6.30
2018-11-25T23:16:09.204Z,6.30
2018-11-25T23:18:38.402Z,6.30
2018-11-25T23:21:08.124Z,6.40
2018-11-25T23:23:37.328Z,6.40
2018-11-25T23:26:06.481Z,6.40
2018-11-25T23:28:35.525Z,6.40
2018-11-25T23:31:05.080Z,6.40
2018-11-25T23:33:34.122Z,6.40
2018-11-25T23:36:03.320Z,6.40
2018-11-25T23:38:32.599Z,6.40
2018-11-25T23:41:01.682Z,6.40
2018-11-25T23:43:30.687Z,6.40
2018-11-25T23:45:59.886Z,6.30
2018-11-25T23:48:29.360Z,6.30
2018-11-25T23:50:58.522Z,6.30
2018-11-25T23:53:27.642Z,6.30
2018-11-25T23:55:56.847Z,6.30
2018-11-25T23:58:26.000Z,6.30
